Time;durP1;ratioP1;P1;durP2;ratioP2;P2;SDS_P1;SDS_P2;PMS_P1;PMS_P2;Temp;Humidity;BMP_temperature;BMP_pressure;BME280_temperature;BME280_humidity;BME280_pressure;Samples;Min_cycle;Max_cycle;Signal;HPM_P1;HPM_P2
2021/09/09 00:00:29;;;;;;;22.53;16.37;;;18.60;99.90;;;;;;4939304;29;20452;-54
2021/09/09 00:02:55;;;;;;;20.30;15.90;;;18.60;99.90;;;;;;4938236;29;20548;-55
2021/09/09 00:05:24;;;;;;;19.10;14.57;;;18.50;99.90;;;;;;4938806;29;20527;-54
2021/09/09 00:07:50;;;;;;;21.60;15.30;;;18.50;99.90;;;;;;4938331;29;20488;-53
2021/09/09 00:10:17;;;;;;;19.07;15.00;;;18.50;99.90;;;;;;4938868;29;20512;-52
2021/09/09 00:12:44;;;;;;;16.10;14.37;;;18.50;99.90;;;;;;4938516;29;20492;-53
2021/09/09 00:15:12;;;;;;;20.90;16.37;;;18.50;99.90;;;;;;4938665;29;20464;-53
2021/09/09 00:17:40;;;;;;;20.37;15.40;;;18.40;99.90;;;;;;4938610;29;20508;-52
2021/09/09 00:20:08;;;;;;;21.37;13.80;;;18.40;99.90;;;;;;4938673;29;20519;-49
2021/09/09 00:22:37;;;;;;;17.73;14.80;;;18.40;99.90;;;;;;4938399;29;20836;-51
2021/09/09 00:25:04;;;;;;;17.90;14.90;;;18.40;99.90;;;;;;4930870;29;20449;-50
2021/09/09 00:27:31;;;;;;;21.80;14.73;;;18.40;99.90;;;;;;4938376;29;20507;-51
2021/09/09 00:29:57;;;;;;;18.20;14.97;;;18.40;99.90;;;;;;4937410;29;20862;-51
2021/09/09 00:32:24;;;;;;;19.73;14.20;;;18.30;99.90;;;;;;4938700;29;20445;-49
2021/09/09 00:34:52;;;;;;;18.37;14.60;;;18.30;99.90;;;;;;4938230;29;20594;-54
2021/09/09 00:37:19;;;;;;;16.57;14.70;;;18.30;99.90;;;;;;4938522;29;20455;-51
2021/09/09 00:39:47;;;;;;;19.97;14.53;;;18.30;99.90;;;;;;4938332;29;20512;-55
2021/09/09 00:42:13;;;;;;;22.30;14.70;;;18.30;99.90;;;;;;4938132;29;20457;-51
2021/09/09 00:44:40;;;;;;;19.80;15.27;;;18.20;99.90;;;;;;4938292;29;20523;-50
2021/09/09 00:47:09;;;;;;;18.30;13.50;;;18.30;99.90;;;;;;4937683;29;20977;-48
2021/09/09 00:49:38;;;;;;;17.60;15.37;;;18.30;99.90;;;;;;4938037;29;20456;-48
2021/09/09 00:52:06;;;;;;;18.37;14.90;;;18.20;99.90;;;;;;4931000;29;20503;-50
2021/09/09 00:54:34;;;;;;;20.77;13.97;;;18.20;99.90;;;;;;4937838;29;20448;-51
2021/09/09 00:57:03;;;;;;;16.53;13.60;;;18.20;99.90;;;;;;4937721;29;20528;-49
2021/09/09 00:59:31;;;;;;;19.10;14.40;;;18.20;99.90;;;;;;4937644;29;20506;-54
2021/09/09 01:01:58;;;;;;;17.80;14.73;;;18.10;99.90;;;;;;4937815;29;20492;-49
2021/09/09 01:04:26;;;;;;;16.60;13.70;;;18.10;99.90;;;;;;4937797;29;20452;-47
2021/09/09 01:06:53;;;;;;;18.37;14.27;;;18.10;99.90;;;;;;4937890;29;20507;-55
2021/09/09 01:09:20;;;;;;;19.50;13.93;;;18.10;99.90;;;;;;4937930;29;20855;-48
2021/09/09 01:11:46;;;;;;;18.93;13.37;;;18.00;99.90;;;;;;4937492;29;20477;-49
2021/09/09 01:14:16;;;;;;;15.17;13.53;;;18.00;99.90;;;;;;4937221;29;20448;-55
2021/09/09 01:16:44;;;;;;;18.33;12.37;;;18.00;99.90;;;;;;4937252;29;20798;-54
2021/09/09 01:19:12;;;;;;;19.10;14.53;;;18.00;99.90;;;;;;4937098;29;20444;-55
2021/09/09 01:21:39;;;;;;;15.37;13.00;;;18.00;99.90;;;;;;4937034;29;20507;-53
2021/09/09 01:24:09;;;;;;;16.67;13.57;;;18.00;99.90;;;;;;4936628;29;20918;-54
2021/09/09 01:26:49;;;;;;;18.53;14.20;;;18.00;99.90;;;;;;4936987;29;20471;-53
2021/09/09 01:29:16;;;;;;;14.90;11.60;;;18.00;99.90;;;;;;4936941;29;20484;-61
2021/09/09 01:31:42;;;;;;;19.47;14.80;;;17.90;99.90;;;;;;4936918;29;20921;-52
2021/09/09 01:34:09;;;;;;;19.53;14.60;;;17.90;99.90;;;;;;4936855;29;20464;-55
2021/09/09 01:36:36;;;;;;;18.10;14.70;;;17.90;99.90;;;;;;4936658;29;20465;-54
2021/09/09 01:39:03;;;;;;;17.80;13.70;;;17.80;99.90;;;;;;4936785;29;20516;-55
2021/09/09 01:41:31;;;;;;;16.90;13.10;;;17.80;99.90;;;;;;4936361;29;20449;-54
2021/09/09 01:43:57;;;;;;;21.07;14.40;;;17.80;99.90;;;;;;4936732;29;20523;-53
2021/09/09 01:46:24;;;;;;;17.63;12.00;;;17.80;99.90;;;;;;4936485;29;20452;-54
2021/09/09 01:48:51;;;;;;;20.60;14.20;;;17.80;99.90;;;;;;4936401;29;20484;-48
2021/09/09 01:51:17;;;;;;;18.73;13.40;;;17.70;99.90;;;;;;4936802;29;20488;-48
2021/09/09 01:53:44;;;;;;;16.43;13.20;;;17.70;99.90;;;;;;4936443;29;20465;-47
2021/09/09 01:56:11;;;;;;;17.67;13.33;;;17.70;99.90;;;;;;4936551;29;20448;-54
2021/09/09 01:58:39;;;;;;;18.83;13.50;;;17.60;99.90;;;;;;4936773;29;20765;-55
2021/09/09 02:01:06;;;;;;;19.23;12.60;;;17.60;99.90;;;;;;4936506;29;20492;-55
2021/09/09 02:03:33;;;;;;;17.53;13.03;;;17.60;99.90;;;;;;4936568;29;20457;-55
2021/09/09 02:05:59;;;;;;;16.10;11.90;;;17.60;99.90;;;;;;4936245;29;20444;-55
2021/09/09 02:08:26;;;;;;;14.63;12.10;;;17.60;99.90;;;;;;4936124;29;20490;-52
2021/09/09 02:10:53;;;;;;;17.30;13.80;;;17.50;99.90;;;;;;4954100;29;20478;-47
2021/09/09 02:13:19;;;;;;;15.27;12.50;;;17.50;99.90;;;;;;4955485;29;20539;-49
2021/09/09 02:15:47;;;;;;;18.50;12.90;;;17.50;99.90;;;;;;4955351;28;20913;-54
2021/09/09 02:18:14;;;;;;;21.00;14.90;;;17.50;99.90;;;;;;4955418;29;20495;-53
2021/09/09 02:20:41;;;;;;;16.10;12.50;;;17.50;99.90;;;;;;4955669;29;20533;-54
2021/09/09 02:23:07;;;;;;;14.80;13.13;;;17.50;99.90;;;;;;4955235;29;20479;-53
2021/09/09 02:25:34;;;;;;;14.97;13.20;;;17.50;99.90;;;;;;4955484;29;20504;-55
2021/09/09 02:28:01;;;;;;;16.87;13.40;;;17.40;99.90;;;;;;4955471;28;20488;-54
2021/09/09 02:30:27;;;;;;;19.80;14.73;;;17.40;99.90;;;;;;4955402;28;20456;-54
2021/09/09 02:32:55;;;;;;;18.10;14.87;;;17.40;99.90;;;;;;4955537;29;20523;-53
2021/09/09 02:35:22;;;;;;;19.10;13.20;;;17.40;99.90;;;;;;4955227;29;20451;-55
2021/09/09 02:37:49;;;;;;;23.00;14.37;;;17.30;99.90;;;;;;4955322;29;20448;-50
2021/09/09 02:40:15;;;;;;;18.07;13.90;;;17.30;99.90;;;;;;4955228;29;20459;-51
2021/09/09 02:42:43;;;;;;;17.00;13.30;;;17.30;99.90;;;;;;4955311;29;20463;-51
2021/09/09 02:45:10;;;;;;;19.37;12.00;;;17.30;99.90;;;;;;4955423;28;20443;-51
2021/09/09 02:47:38;;;;;;;18.20;14.97;;;17.30;99.90;;;;;;4955082;29;20519;-55
2021/09/09 02:50:08;;;;;;;14.70;13.00;;;17.30;99.90;;;;;;4955336;28;20471;-55
2021/09/09 02:52:35;;;;;;;18.60;13.90;;;17.30;99.90;;;;;;4956481;28;20905;-51
2021/09/09 02:55:02;;;;;;;18.87;12.83;;;17.20;99.90;;;;;;4958658;28;20907;-54
2021/09/09 02:57:29;;;;;;;15.93;13.87;;;17.20;99.90;;;;;;4958811;28;20510;-55
2021/09/09 02:59:56;;;;;;;16.80;13.40;;;17.20;99.90;;;;;;4958534;28;20510;-53
2021/09/09 03:02:24;;;;;;;20.37;13.60;;;17.10;99.90;;;;;;4958663;28;20452;-54
2021/09/09 03:04:51;;;;;;;18.37;12.40;;;17.10;99.90;;;;;;4958301;29;20911;-54
2021/09/09 03:07:19;;;;;;;22.27;13.30;;;17.10;99.90;;;;;;4958397;29;20471;-53
2021/09/09 03:09:46;;;;;;;18.93;13.60;;;17.10;99.90;;;;;;4958516;28;20479;-48
2021/09/09 03:12:13;;;;;;;17.87;12.90;;;17.10;99.90;;;;;;4958251;28;20483;-51
2021/09/09 03:14:39;;;;;;;18.83;12.67;;;17.00;99.90;;;;;;4958167;29;20515;-54
2021/09/09 03:17:06;;;;;;;16.90;13.17;;;17.00;99.90;;;;;;4958261;29;20845;-53
2021/09/09 03:19:33;;;;;;;15.03;12.30;;;17.00;99.90;;;;;;4958460;28;20448;-54
2021/09/09 03:21:59;;;;;;;23.77;13.00;;;17.00;99.90;;;;;;4958271;28;20452;-48
2021/09/09 03:24:27;;;;;;;17.93;12.67;;;17.00;99.90;;;;;;4958084;28;20452;-48
2021/09/09 03:26:54;;;;;;;16.03;12.57;;;17.00;99.90;;;;;;4958210;28;20463;-55
2021/09/09 03:29:21;;;;;;;17.77;13.77;;;17.00;99.90;;;;;;4957837;29;20479;-56
2021/09/09 03:31:47;;;;;;;16.90;13.97;;;16.90;99.90;;;;;;4957773;28;20523;-55
2021/09/09 03:34:14;;;;;;;15.80;13.00;;;16.90;99.90;;;;;;4957918;28;20456;-55
2021/09/09 03:36:41;;;;;;;15.47;13.87;;;16.90;99.90;;;;;;4957668;28;20917;-54
2021/09/09 03:39:07;;;;;;;17.23;12.30;;;16.90;99.90;;;;;;4957991;29;20456;-48
2021/09/09 03:41:35;;;;;;;19.20;13.40;;;16.80;99.90;;;;;;4957625;29;20522;-53
2021/09/09 03:44:02;;;;;;;18.27;12.93;;;16.80;99.90;;;;;;4957813;28;20456;-49
2021/09/09 03:46:28;;;;;;;17.10;12.40;;;16.80;99.90;;;;;;4957503;28;20475;-53
2021/09/09 03:48:55;;;;;;;15.93;12.77;;;16.80;99.90;;;;;;4957442;28;21057;-56
2021/09/09 03:51:22;;;;;;;18.97;12.90;;;16.80;99.90;;;;;;4957672;29;20452;-55
2021/09/09 03:53:48;;;;;;;21.80;13.40;;;16.80;99.90;;;;;;4957594;28;20518;-56
2021/09/09 03:56:15;;;;;;;18.60;12.93;;;16.70;99.90;;;;;;4957567;28;20471;-52
2021/09/09 03:58:43;;;;;;;15.77;13.87;;;16.70;99.90;;;;;;4957619;29;20444;-54
2021/09/09 04:01:10;;;;;;;17.63;13.77;;;16.70;99.90;;;;;;4957537;29;20832;-51
2021/09/09 04:03:36;;;;;;;17.83;12.93;;;16.60;99.90;;;;;;4956264;28;20475;-56
2021/09/09 04:06:03;;;;;;;21.10;14.10;;;16.60;99.90;;;;;;4957390;29;20455;-52
2021/09/09 04:08:30;;;;;;;18.07;13.23;;;16.60;99.90;;;;;;4957396;28;20479;-56
2021/09/09 04:10:57;;;;;;;16.57;13.37;;;16.60;99.90;;;;;;4965295;29;21019;-54
2021/09/09 04:13:23;;;;;;;16.83;14.50;;;16.60;99.90;;;;;;4956925;28;20554;-53
2021/09/09 04:15:51;;;;;;;17.07;14.50;;;16.50;99.90;;;;;;4956977;29;20487;-53
2021/09/09 04:18:18;;;;;;;15.60;13.00;;;16.50;99.90;;;;;;4957124;29;20514;-55
2021/09/09 04:20:44;;;;;;;18.03;13.13;;;16.50;99.90;;;;;;4957082;28;20801;-52
2021/09/09 04:23:11;;;;;;;15.37;12.60;;;16.40;99.90;;;;;;4956788;29;20451;-53
2021/09/09 04:25:38;;;;;;;15.47;13.47;;;16.40;99.90;;;;;;4957115;29;20506;-55
2021/09/09 04:28:05;;;;;;;18.73;13.20;;;16.40;99.90;;;;;;4956673;28;20468;-54
2021/09/09 04:30:31;;;;;;;16.60;12.67;;;16.30;99.90;;;;;;4956954;29;20514;-48
2021/09/09 04:32:59;;;;;;;17.33;13.30;;;16.30;99.90;;;;;;4957069;29;20447;-53
2021/09/09 04:35:26;;;;;;;18.73;12.97;;;16.30;99.90;;;;;;4956801;28;20447;-53
2021/09/09 04:37:53;;;;;;;16.90;13.63;;;16.30;99.90;;;;;;4956869;29;20451;-52
2021/09/09 04:40:19;;;;;;;18.23;12.97;;;16.20;99.90;;;;;;4956603;28;20459;-55
2021/09/09 04:42:46;;;;;;;14.23;12.07;;;16.30;99.90;;;;;;4956859;28;20452;-48
2021/09/09 04:45:13;;;;;;;16.77;12.20;;;16.30;99.90;;;;;;4956696;28;20522;-54
2021/09/09 04:47:40;;;;;;;19.33;12.67;;;16.30;99.90;;;;;;4956340;28;20929;-50
2021/09/09 04:50:09;;;;;;;18.63;13.47;;;16.30;99.90;;;;;;4957474;28;20487;-52
2021/09/09 04:52:36;;;;;;;17.67;12.50;;;16.20;99.90;;;;;;4956435;28;20455;-55
2021/09/09 04:55:04;;;;;;;15.40;12.53;;;16.20;99.90;;;;;;4956578;29;20495;-54
2021/09/09 04:57:31;;;;;;;17.63;13.77;;;16.30;99.90;;;;;;4956298;28;20865;-55
2021/09/09 04:59:57;;;;;;;17.03;12.70;;;16.30;99.90;;;;;;4956432;29;20444;-54
2021/09/09 05:02:24;;;;;;;17.07;14.10;;;16.30;99.90;;;;;;4956197;29;20992;-51
2021/09/09 05:04:50;;;;;;;14.83;12.70;;;16.30;99.90;;;;;;4956303;29;20511;-53
2021/09/09 05:07:18;;;;;;;20.63;13.27;;;16.30;99.90;;;;;;4956414;28;20448;-54
2021/09/09 05:09:45;;;;;;;20.73;13.90;;;16.30;99.90;;;;;;4955930;29;20542;-55
2021/09/09 05:12:12;;;;;;;22.17;12.60;;;16.20;99.90;;;;;;4956084;29;20480;-51
2021/09/09 05:14:38;;;;;;;19.97;13.27;;;16.30;99.90;;;;;;4955916;28;20520;-55
2021/09/09 05:17:05;;;;;;;19.33;13.47;;;16.30;99.90;;;;;;4955981;29;20451;-50
2021/09/09 05:19:31;;;;;;;19.60;13.80;;;16.30;99.90;;;;;;4955966;28;20460;-52
2021/09/09 05:21:58;;;;;;;17.87;13.67;;;16.30;99.90;;;;;;4955895;29;20506;-54
2021/09/09 05:24:26;;;;;;;19.97;13.87;;;16.30;99.90;;;;;;4955862;28;20455;-51
2021/09/09 05:26:53;;;;;;;17.40;13.53;;;16.30;99.90;;;;;;4956140;28;20519;-53
2021/09/09 05:29:22;;;;;;;18.87;12.60;;;16.30;99.90;;;;;;4955671;28;20554;-53
2021/09/09 05:31:49;;;;;;;19.63;12.43;;;16.30;99.90;;;;;;4956121;29;20452;-52
2021/09/09 05:34:16;;;;;;;17.17;13.03;;;16.30;99.90;;;;;;4955847;29;20984;-51
2021/09/09 05:36:42;;;;;;;16.33;12.30;;;16.30;99.90;;;;;;4955678;29;20468;-51
2021/09/09 05:39:09;;;;;;;18.70;12.53;;;16.40;99.90;;;;;;4955704;28;20443;-54
2021/09/09 05:41:37;;;;;;;15.10;12.00;;;16.40;99.90;;;;;;4955677;29;20518;-54
2021/09/09 05:44:04;;;;;;;16.07;12.67;;;16.40;99.90;;;;;;4955979;29;20467;-55
2021/09/09 05:46:31;;;;;;;18.23;12.70;;;16.40;99.90;;;;;;4955757;29;20526;-54
2021/09/09 05:48:58;;;;;;;14.47;12.53;;;16.40;99.90;;;;;;4955853;28;20848;-50
2021/09/09 05:51:24;;;;;;;19.77;13.27;;;16.40;99.90;;;;;;4955658;29;20894;-54
2021/09/09 05:53:51;;;;;;;16.00;12.50;;;16.50;99.90;;;;;;4955756;29;20459;-53
2021/09/09 05:56:18;;;;;;;17.63;12.57;;;16.50;99.90;;;;;;4950161;29;20519;-51
2021/09/09 05:58:46;;;;;;;16.53;12.77;;;16.60;99.90;;;;;;4955842;28;20820;-50
2021/09/09 06:01:12;;;;;;;14.07;12.57;;;16.60;99.90;;;;;;4955807;29;20866;-49
2021/09/09 06:03:40;;;;;;;16.30;12.57;;;16.60;99.90;;;;;;4955612;28;20845;-53
2021/09/09 06:06:07;;;;;;;16.80;12.60;;;16.60;99.90;;;;;;4955002;28;20526;-54
2021/09/09 06:08:36;;;;;;;23.33;12.97;;;16.60;99.90;;;;;;4955626;29;20464;-55
2021/09/09 06:11:03;;;;;;;16.43;13.67;;;16.60;99.90;;;;;;4955575;28;20538;-56
2021/09/09 06:13:32;;;;;;;17.20;11.47;;;16.70;99.90;;;;;;4955525;29;20480;-53
2021/09/09 06:15:59;;;;;;;15.73;12.40;;;16.70;99.90;;;;;;4955438;29;20466;-55
2021/09/09 06:18:26;;;;;;;20.27;11.67;;;16.80;99.90;;;;;;4949728;28;20476;-55
2021/09/09 06:20:53;;;;;;;17.63;12.03;;;16.80;99.90;;;;;;4955449;28;20893;-53
2021/09/09 06:28:33;;;;;;;18.37;12.10;;;17.00;99.90;;;;;;5348094;23;20476;-53
2021/09/09 06:31:01;;;;;;;14.20;10.40;;;17.00;99.90;;;;;;5038574;28;20468;-54
2021/09/09 06:33:30;;;;;;;14.33;10.80;;;17.10;99.90;;;;;;5020116;28;20459;-53
2021/09/09 06:35:57;;;;;;;12.73;9.00;;;17.20;99.90;;;;;;5019664;28;20449;-54
2021/09/09 06:38:23;;;;;;;12.50;10.00;;;17.30;99.90;;;;;;5019228;28;20467;-54
2021/09/09 06:40:50;;;;;;;16.90;9.87;;;17.30;99.90;;;;;;5019827;28;20476;-54
2021/09/09 06:43:17;;;;;;;15.97;11.17;;;17.30;99.90;;;;;;5019773;28;20461;-53
2021/09/09 06:45:44;;;;;;;14.17;9.77;;;17.40;99.90;;;;;;5020256;28;20456;-49
2021/09/09 06:48:14;;;;;;;18.43;10.50;;;17.50;99.90;;;;;;5020219;28;20793;-51
2021/09/09 06:50:40;;;;;;;16.53;10.93;;;17.50;99.90;;;;;;5014061;28;21187;-52
2021/09/09 06:53:07;;;;;;;12.50;9.10;;;17.70;99.90;;;;;;5016650;28;20511;-54
2021/09/09 06:55:34;;;;;;;13.63;10.53;;;17.70;99.90;;;;;;5016637;28;20445;-52
2021/09/09 06:58:02;;;;;;;13.03;9.70;;;17.90;99.90;;;;;;5016342;28;20519;-54
2021/09/09 07:00:28;;;;;;;12.70;10.40;;;17.90;99.90;;;;;;5010646;28;20472;-53
2021/09/09 07:02:55;;;;;;;14.27;10.33;;;18.00;99.90;;;;;;4998222;28;20442;-54
2021/09/09 07:05:26;;;;;;;13.50;10.20;;;18.10;99.90;;;;;;4997547;28;20442;-55
2021/09/09 07:07:52;;;;;;;13.33;9.23;;;18.20;99.90;;;;;;5012421;28;20444;-49
2021/09/09 07:10:19;;;;;;;12.77;9.40;;;18.20;99.90;;;;;;5016823;28;20484;-48
2021/09/09 07:12:46;;;;;;;13.77;8.80;;;18.30;99.90;;;;;;5016968;28;20515;-53
2021/09/09 07:15:13;;;;;;;11.80;9.60;;;18.40;99.90;;;;;;5017055;28;20445;-54
2021/09/09 08:12:02;;;;;;;9.80;7.63;;;21.30;99.90;;;;;;5881011;23;20514;-50
2021/09/09 08:14:29;;;;;;;10.80;6.20;;;23.30;99.90;;;;;;5016388;28;20481;-55
2021/09/09 08:16:56;;;;;;;7.47;6.67;;;25.60;99.90;;;;;;5023121;28;20484;-52
2021/09/09 08:19:22;;;;;;;7.67;6.30;;;27.20;90.10;;;;;;5002264;28;20474;-50
2021/09/09 08:21:49;;;;;;;6.80;6.20;;;28.30;78.30;;;;;;5009609;28;20898;-54
2021/09/09 08:24:16;;;;;;;8.63;6.90;;;29.20;70.90;;;;;;5015133;28;20926;-53
2021/09/09 08:26:43;;;;;;;8.97;6.40;;;30.20;65.20;;;;;;5012567;28;20461;-56
2021/09/09 08:29:11;;;;;;;8.03;7.03;;;31.00;60.00;;;;;;5014928;28;20491;-55
2021/09/09 08:31:37;;;;;;;8.40;6.50;;;31.80;57.90;;;;;;5014910;28;20441;-56
2021/09/09 08:34:05;;;;;;;10.13;7.37;;;32.90;53.90;;;;;;5014867;28;20445;-56
2021/09/09 08:36:32;;;;;;;8.20;7.40;;;33.40;52.10;;;;;;5015339;28;20536;-52
2021/09/09 08:38:58;;;;;;;8.90;6.60;;;34.00;50.60;;;;;;5015578;28;20457;-56
2021/09/09 08:41:25;;;;;;;7.63;6.93;;;34.60;48.30;;;;;;5015515;28;20818;-56
2021/09/09 08:43:52;;;;;;;7.10;6.40;;;34.90;47.20;;;;;;5015449;28;20834;-56
2021/09/09 08:46:20;;;;;;;8.77;6.80;;;34.90;46.70;;;;;;5014376;28;20437;-52
2021/09/09 08:48:49;;;;;;;8.43;6.83;;;35.40;44.60;;;;;;5015337;28;20798;-54
2021/09/09 08:51:16;;;;;;;7.63;6.83;;;35.70;44.80;;;;;;5012702;28;20485;-56
2021/09/09 08:53:43;;;;;;;8.10;6.40;;;35.60;44.30;;;;;;5013800;28;20476;-56
2021/09/09 08:56:10;;;;;;;12.50;10.30;;;35.60;43.80;;;;;;5015211;28;20511;-55
2021/09/09 08:58:37;;;;;;;10.23;8.23;;;35.70;44.10;;;;;;5014818;28;20946;-54
2021/09/09 09:01:05;;;;;;;10.10;7.77;;;35.70;43.60;;;;;;5014764;28;20460;-55
2021/09/09 09:03:45;;;;;;;7.10;6.50;;;35.70;43.30;;;;;;5015075;28;20481;-53
2021/09/09 09:06:34;;;;;;;8.33;7.50;;;35.90;42.60;;;;;;4995406;28;20989;-56
2021/09/09 09:09:04;;;;;;;10.40;7.40;;;36.10;42.60;;;;;;4995563;28;20938;-56
2021/09/09 09:11:33;;;;;;;13.07;7.73;;;36.10;42.00;;;;;;4994992;28;20449;-54
2021/09/09 09:14:01;;;;;;;11.40;6.80;;;36.10;42.30;;;;;;4995156;28;20457;-51
2021/09/09 09:16:28;;;;;;;10.23;7.33;;;36.30;42.00;;;;;;4995352;28;20449;-49
2021/09/09 09:18:59;;;;;;;7.37;6.57;;;36.40;42.30;;;;;;4995103;28;20516;-53
2021/09/09 09:21:26;;;;;;;8.10;7.40;;;36.40;41.70;;;;;;4999668;28;20449;-55
2021/09/09 09:23:56;;;;;;;8.97;7.67;;;36.60;41.30;;;;;;5014265;28;20448;-55
2021/09/09 09:26:23;;;;;;;10.03;7.73;;;36.60;41.10;;;;;;5014362;28;20527;-53
2021/09/09 09:28:51;;;;;;;9.20;6.37;;;36.30;41.50;;;;;;5014557;28;20449;-54
2021/09/09 09:31:20;;;;;;;11.13;8.00;;;35.80;42.30;;;;;;5013790;28;20768;-54
2021/09/09 09:33:50;;;;;;;9.37;8.13;;;36.00;41.80;;;;;;5014316;28;20481;-54
2021/09/09 09:36:22;;;;;;;7.67;7.07;;;36.00;42.00;;;;;;5014030;28;20830;-56
2021/09/09 09:38:49;;;;;;;10.17;7.30;;;36.30;42.10;;;;;;5014266;28;20452;-56
2021/09/09 09:41:18;;;;;;;8.53;7.83;;;36.60;41.50;;;;;;5001962;28;20910;-54
2021/09/09 09:43:59;;;;;;;7.83;7.13;;;36.90;41.70;;;;;;4994795;28;20464;-55
2021/09/09 09:46:32;;;;;;;7.80;7.10;;;37.10;41.80;;;;;;5003612;28;20932;-55
2021/09/09 09:49:25;;;;;;;14.40;7.70;;;37.00;41.20;;;;;;5014200;28;20445;-55
2021/09/09 09:51:57;;;;;;;13.67;11.10;;;37.10;40.30;;;;;;5014464;28;20851;-51
2021/09/09 09:54:25;;;;;;;8.40;7.23;;;37.20;40.00;;;;;;5014522;28;20739;-53
2021/09/09 09:56:55;;;;;;;10.53;8.17;;;37.30;40.70;;;;;;5014288;28;20476;-50
2021/09/09 09:59:22;;;;;;;7.27;6.60;;;37.20;41.20;;;;;;4999535;28;20461;-57
2021/09/09 10:01:49;;;;;;;7.90;7.10;;;37.40;39.60;;;;;;4996786;28;20788;-55
2021/09/09 10:04:18;;;;;;;8.37;7.57;;;37.50;40.10;;;;;;4998476;28;20524;-55
2021/09/09 10:06:47;;;;;;;7.53;6.83;;;37.20;40.70;;;;;;4998697;28;20461;-56
2021/09/09 10:09:16;;;;;;;11.47;8.40;;;37.30;39.30;;;;;;4998396;28;20453;-54
2021/09/09 10:11:43;;;;;;;7.50;6.80;;;37.20;39.70;;;;;;4998335;28;21024;-56
2021/09/09 10:14:16;;;;;;;8.33;7.60;;;37.10;39.90;;;;;;4998676;28;20515;-56
2021/09/09 10:16:44;;;;;;;6.90;6.20;;;36.90;41.20;;;;;;4998476;28;20449;-56
2021/09/09 10:19:12;;;;;;;10.83;6.67;;;37.00;40.30;;;;;;5014233;28;20507;-54
2021/09/09 10:21:42;;;;;;;9.63;7.00;;;37.20;39.70;;;;;;5017612;28;20449;-53
2021/09/09 10:24:17;;;;;;;7.77;7.00;;;37.10;39.60;;;;;;5017790;28;20445;-54
2021/09/09 10:26:44;;;;;;;8.07;7.27;;;37.10;39.90;;;;;;5017779;28;20780;-53
2021/09/09 10:29:46;;;;;;;7.60;6.90;;;36.50;40.60;;;;;;5017671;28;20527;-51
2021/09/09 10:32:47;;;;;;;7.27;6.57;;;36.10;41.00;;;;;;5000337;28;20452;-53
2021/09/09 10:35:30;;;;;;;9.40;7.00;;;35.90;41.10;;;;;;5017741;28;20532;-52
2021/09/09 10:37:59;;;;;;;7.70;6.90;;;35.70;41.10;;;;;;5017387;28;20467;-56
2021/09/09 10:40:35;;;;;;;8.00;7.20;;;35.30;41.60;;;;;;5017243;28;20488;-55
2021/09/09 10:43:03;;;;;;;7.67;6.67;;;34.90;42.50;;;;;;5017041;28;20475;-56
2021/09/09 10:45:40;;;;;;;7.93;7.23;;;34.70;42.80;;;;;;5017025;28;20523;-56
2021/09/09 10:48:08;;;;;;;7.70;7.00;;;34.40;43.20;;;;;;5017184;28;20448;-55
2021/09/09 10:50:36;;;;;;;8.37;6.83;;;34.30;44.30;;;;;;5017155;28;20491;-51
2021/09/09 10:53:04;;;;;;;8.03;7.23;;;33.70;44.30;;;;;;5017284;28;20523;-52
2021/09/09 10:55:34;;;;;;;7.30;6.70;;;33.20;45.60;;;;;;5016849;28;20465;-49
2021/09/09 10:58:28;;;;;;;10.03;8.03;;;32.90;45.50;;;;;;5017213;28;20784;-56
2021/09/09 11:00:56;;;;;;;7.60;6.90;;;32.60;46.60;;;;;;5017121;28;20425;-56
2021/09/09 11:03:39;;;;;;;7.37;6.67;;;32.30;46.70;;;;;;5016911;28;20459;-54
2021/09/09 11:06:08;;;;;;;12.43;6.80;;;31.90;47.50;;;;;;5017041;28;20808;-52
2021/09/09 11:08:34;;;;;;;7.30;6.60;;;31.50;47.90;;;;;;5016618;28;20921;-52
2021/09/09 11:11:04;;;;;;;7.60;6.90;;;31.20;48.10;;;;;;5016501;28;20555;-52
2021/09/09 11:13:32;;;;;;;7.60;6.67;;;31.10;48.50;;;;;;5015961;28;20567;-53
2021/09/09 11:15:59;;;;;;;10.70;6.37;;;30.80;48.60;;;;;;5016844;28;20552;-54
2021/09/09 11:18:27;;;;;;;8.03;7.27;;;30.60;49.40;;;;;;5016462;28;21027;-55
2021/09/09 11:21:05;;;;;;;7.57;6.70;;;30.60;50.20;;;;;;5016676;28;20445;-56
2021/09/09 11:23:32;;;;;;;12.30;7.20;;;30.40;50.00;;;;;;5016463;28;20518;-51
2021/09/09 11:26:11;;;;;;;10.17;7.73;;;30.00;50.30;;;;;;5016748;28;20451;-54
2021/09/09 11:28:40;;;;;;;7.87;7.17;;;29.60;50.70;;;;;;5016277;28;20455;-51
2021/09/09 11:31:13;;;;;;;8.87;6.90;;;29.30;51.30;;;;;;5016220;28;20535;-51
2021/09/09 11:33:51;;;;;;;11.70;7.60;;;29.10;52.10;;;;;;5016061;28;20870;-54
2021/09/09 11:36:18;;;;;;;11.40;6.20;;;29.00;54.00;;;;;;5016100;28;20457;-54
2021/09/09 11:38:45;;;;;;;6.77;6.10;;;29.00;53.50;;;;;;5016048;28;20449;-48
2021/09/09 11:41:15;;;;;;;9.43;6.60;;;28.90;53.10;;;;;;5016210;28;20452;-54
2021/09/09 11:43:48;;;;;;;7.70;6.60;;;28.70;52.90;;;;;;5016210;28;20467;-52
2021/09/09 11:46:24;;;;;;;11.30;6.27;;;28.60;53.00;;;;;;5016359;28;20422;-55
2021/09/09 11:48:52;;;;;;;8.70;7.27;;;28.40;53.40;;;;;;5016080;28;20445;-50
2021/09/09 11:51:36;;;;;;;8.70;7.30;;;28.40;53.70;;;;;;5016050;28;20805;-53
2021/09/09 11:54:04;;;;;;;8.20;7.00;;;28.30;53.80;;;;;;5015785;28;20953;-53
2021/09/09 11:56:32;;;;;;;11.33;8.03;;;28.20;54.40;;;;;;5016029;28;20796;-55
2021/09/09 11:59:02;;;;;;;9.47;6.77;;;28.20;55.00;;;;;;5016058;28;20485;-52
2021/09/09 12:01:31;;;;;;;7.60;6.23;;;28.20;54.70;;;;;;5015810;28;20453;-52
2021/09/09 12:03:59;;;;;;;6.77;6.07;;;28.10;54.70;;;;;;5016072;28;20465;-50
2021/09/09 12:06:26;;;;;;;8.33;6.50;;;28.00;54.80;;;;;;5015593;28;20453;-50
2021/09/09 12:08:53;;;;;;;8.50;6.30;;;28.10;55.00;;;;;;5015779;28;20776;-54
2021/09/09 12:11:20;;;;;;;7.17;6.57;;;28.10;55.10;;;;;;5015414;28;20974;-52
2021/09/09 12:13:48;;;;;;;7.70;6.93;;;28.00;55.30;;;;;;5015324;28;20480;-54
2021/09/09 12:16:20;;;;;;;7.70;7.00;;;27.90;55.60;;;;;;5015754;28;20449;-54
2021/09/09 12:18:49;;;;;;;7.53;6.70;;;27.90;55.90;;;;;;5015404;28;20461;-54
2021/09/09 12:21:17;;;;;;;7.70;6.90;;;28.00;56.60;;;;;;5015579;28;20480;-57
2021/09/09 12:24:03;;;;;;;10.30;7.80;;;28.10;55.90;;;;;;5015171;28;20453;-52
2021/09/09 12:26:31;;;;;;;9.93;6.60;;;28.20;55.90;;;;;;5014951;28;20465;-52
2021/09/09 12:28:59;;;;;;;9.53;6.70;;;28.20;55.60;;;;;;5015490;28;20488;-54
2021/09/09 12:31:34;;;;;;;10.53;7.10;;;28.20;56.40;;;;;;5015075;28;20488;-53
2021/09/09 12:34:09;;;;;;;7.13;6.47;;;28.20;56.00;;;;;;5015348;28;20829;-54
2021/09/09 12:36:40;;;;;;;14.93;7.00;;;28.10;55.80;;;;;;5015104;28;20886;-54
2021/09/09 12:39:07;;;;;;;9.67;8.67;;;28.20;56.20;;;;;;5015147;28;20449;-54
2021/09/09 12:41:34;;;;;;;7.90;6.60;;;28.30;56.60;;;;;;5015156;28;20481;-55
2021/09/09 12:44:15;;;;;;;6.23;5.63;;;28.20;55.70;;;;;;5014966;28;20507;-55
2021/09/09 12:46:51;;;;;;;7.77;7.10;;;28.00;56.10;;;;;;5174005;27;20947;-52
2021/09/09 12:49:26;;;;;;;8.83;6.80;;;28.00;56.80;;;;;;5174594;27;20438;-53
2021/09/09 12:52:09;;;;;;;8.93;6.33;;;28.20;56.10;;;;;;5173909;27;20460;-53
2021/09/09 12:54:39;;;;;;;8.63;6.80;;;28.30;56.20;;;;;;5171602;27;20607;-56
2021/09/09 12:57:06;;;;;;;8.13;6.90;;;28.40;56.20;;;;;;5173730;27;20441;-55
2021/09/09 12:59:33;;;;;;;14.73;6.80;;;28.40;56.30;;;;;;5173694;27;20869;-56
2021/09/09 13:02:01;;;;;;;10.50;7.43;;;28.20;56.20;;;;;;5173636;27;20925;-54
2021/09/09 13:04:29;;;;;;;10.17;6.57;;;28.30;57.60;;;;;;5173476;27;20509;-52
2021/09/09 13:06:57;;;;;;;7.83;7.00;;;28.30;56.50;;;;;;5173456;27;20918;-53
2021/09/09 13:09:25;;;;;;;7.33;6.63;;;28.30;56.30;;;;;;5173488;27;20479;-52
2021/09/09 13:11:53;;;;;;;7.63;6.57;;;28.20;56.20;;;;;;5173564;27;20450;-55
2021/09/09 13:14:19;;;;;;;10.47;7.90;;;28.10;56.50;;;;;;5173659;27;20502;-49
2021/09/09 13:16:46;;;;;;;10.67;7.90;;;28.20;56.70;;;;;;5173405;27;20986;-51
2021/09/09 13:19:14;;;;;;;9.00;7.23;;;28.20;56.50;;;;;;5173305;27;20441;-52
2021/09/09 13:21:41;;;;;;;9.87;7.00;;;28.30;56.90;;;;;;5173623;27;20544;-54
2021/09/09 13:24:10;;;;;;;11.47;7.40;;;28.40;56.70;;;;;;5173357;27;20764;-51
2021/09/09 13:26:37;;;;;;;10.07;6.53;;;28.50;56.70;;;;;;5173167;27;20501;-50
2021/09/09 13:29:05;;;;;;;8.40;6.40;;;28.70;56.40;;;;;;5173191;27;20526;-52
2021/09/09 13:31:31;;;;;;;7.30;6.57;;;28.60;56.10;;;;;;5173122;27;20537;-53
2021/09/09 13:34:00;;;;;;;11.60;6.60;;;28.60;56.40;;;;;;5173095;27;20442;-54
2021/09/09 13:36:32;;;;;;;9.20;7.10;;;28.70;56.20;;;;;;5173245;27;20491;-54
2021/09/09 13:38:59;;;;;;;19.03;15.30;;;28.70;55.70;;;;;;5173385;27;20736;-54